Time;durP1;ratioP1;P1;durP2;ratioP2;P2;SDS_P1;SDS_P2;PMS_P1;PMS_P2;Temp;Humidity;BMP_temperature;BMP_pressure;BME280_temperature;BME280_humidity;BME280_pressure;Samples;Min_cycle;Max_cycle;Signal;HPM_P1;HPM_P2
2021/05/14 00:02:11;;;;;;;3.08;2.30;;;;;;;7.13;100.00;99250.41;4969268;28;21211;-76
2021/05/14 00:05:15;;;;;;;7.30;3.83;;;;;;;7.15;100.00;99258.22;4968220;28;20048;-76
2021/05/14 00:08:19;;;;;;;3.17;2.78;;;;;;;7.09;100.00;99257.34;4969084;28;20063;-76
2021/05/14 00:11:22;;;;;;;9.75;3.65;;;;;;;7.01;100.00;99259.69;4968929;28;20053;-76
2021/05/14 00:14:26;;;;;;;6.22;3.22;;;;;;;6.99;100.00;99253.06;4970170;28;20057;-76
2021/05/14 00:17:30;;;;;;;5.03;3.05;;;;;;;6.93;100.00;99255.69;4971781;28;21119;-76
2021/05/14 00:20:34;;;;;;;5.00;2.58;;;;;;;6.85;100.00;99257.25;4977376;28;20163;-76
2021/05/14 00:23:38;;;;;;;11.80;3.90;;;;;;;6.81;100.00;99257.41;4974499;28;20069;-77
2021/05/14 00:26:41;;;;;;;7.40;2.80;;;;;;;6.79;100.00;99253.56;5012595;28;20061;-76
2021/05/14 00:29:45;;;;;;;3.67;2.50;;;;;;;6.70;100.00;99250.81;5012424;28;20125;-76
2021/05/14 00:32:49;;;;;;;5.60;2.65;;;;;;;6.66;100.00;99261.28;5012622;28;20065;-77
2021/05/14 00:35:52;;;;;;;9.63;3.88;;;;;;;6.63;100.00;99260.22;5012444;28;20065;-81
2021/05/14 00:38:55;;;;;;;5.00;2.80;;;;;;;6.54;100.00;99259.47;5012705;28;20049;-81
2021/05/14 00:41:59;;;;;;;6.80;2.88;;;;;;;6.45;100.00;99256.72;5011104;28;20061;-76
2021/05/14 00:45:05;;;;;;;5.38;2.92;;;;;;;6.39;100.00;99253.78;5012333;28;20052;-76
2021/05/14 00:48:08;;;;;;;9.18;3.65;;;;;;;6.29;100.00;99255.00;5012402;28;20076;-80
2021/05/14 00:51:12;;;;;;;5.13;2.85;;;;;;;6.21;100.00;99264.84;5012352;28;20053;-81
2021/05/14 00:54:16;;;;;;;2.70;2.50;;;;;;;6.22;100.00;99265.59;5012257;28;20049;-81
2021/05/14 00:57:20;;;;;;;6.03;3.55;;;;;;;6.22;100.00;99271.13;5011394;28;20069;-80
2021/05/14 01:00:23;;;;;;;7.32;3.88;;;;;;;6.28;100.00;99266.53;5012044;28;20065;-80
2021/05/14 01:03:27;;;;;;;12.15;3.75;;;;;;;6.28;100.00;99280.38;5012024;28;20061;-80
2021/05/14 01:06:31;;;;;;;12.93;4.97;;;;;;;6.23;100.00;99275.44;5022512;28;20060;-76
2021/05/14 01:09:38;;;;;;;11.55;3.63;;;;;;;6.24;100.00;99285.28;5012084;28;20060;-76
2021/05/14 01:12:41;;;;;;;9.10;2.85;;;;;;;6.24;100.00;99288.06;5012109;28;20061;-76
2021/05/14 01:15:45;;;;;;;6.32;4.30;;;;;;;6.31;100.00;99301.56;5011884;28;20061;-77
2021/05/14 01:18:48;;;;;;;9.75;3.35;;;;;;;6.42;100.00;99290.81;5011732;28;20125;-76
2021/05/14 01:21:51;;;;;;;5.57;2.80;;;;;;;6.53;100.00;99296.66;5011652;28;20053;-76
2021/05/14 01:24:55;;;;;;;8.55;4.18;;;;;;;6.58;100.00;99293.28;5011749;28;20539;-76
2021/05/14 01:27:59;;;;;;;8.70;3.67;;;;;;;6.59;100.00;99290.03;5011454;28;20064;-76
2021/05/14 01:31:02;;;;;;;14.63;3.30;;;;;;;6.57;100.00;99292.50;5011114;28;20538;-76
2021/05/14 01:34:07;;;;;;;10.93;4.25;;;;;;;6.62;100.00;99282.81;5011460;28;20052;-76
2021/05/14 01:37:11;;;;;;;4.25;2.75;;;;;;;6.67;100.00;99284.97;5011319;28;20057;-76
2021/05/14 01:40:14;;;;;;;4.82;3.80;;;;;;;6.68;100.00;99275.41;5010843;28;20077;-77
2021/05/14 01:43:18;;;;;;;4.47;2.70;;;;;;;6.71;100.00;99282.81;5010427;28;20523;-78
2021/05/14 01:46:21;;;;;;;12.57;4.68;;;;;;;6.75;100.00;99294.47;5010904;28;20412;-76
2021/05/14 01:49:25;;;;;;;7.88;4.07;;;;;;;6.78;100.00;99296.31;5010970;28;20056;-76
2021/05/14 01:52:28;;;;;;;8.10;2.42;;;;;;;6.83;100.00;99287.38;5010922;28;20057;-76
2021/05/14 01:55:33;;;;;;;8.65;2.38;;;;;;;6.88;100.00;99292.31;5011196;28;20049;-77
2021/05/14 01:58:36;;;;;;;7.72;3.03;;;;;;;6.88;100.00;99284.00;5011281;28;20061;-76
2021/05/14 02:01:41;;;;;;;17.52;4.60;;;;;;;6.89;100.00;99285.53;5011232;28;20674;-76
2021/05/14 02:04:45;;;;;;;15.70;3.33;;;;;;;6.84;100.00;99283.41;5011013;28;20053;-76
2021/05/14 02:07:49;;;;;;;12.75;4.03;;;;;;;6.80;100.00;99277.25;5010813;28;20049;-76
2021/05/14 02:10:52;;;;;;;6.88;2.67;;;;;;;6.77;100.00;99280.94;5010687;28;20069;-77
2021/05/14 02:13:56;;;;;;;7.97;3.72;;;;;;;6.71;100.00;99277.28;5010298;28;20061;-76
2021/05/14 02:16:59;;;;;;;12.50;3.40;;;;;;;6.68;100.00;99276.19;5010488;28;20052;-78
2021/05/14 02:20:06;;;;;;;14.50;4.45;;;;;;;6.66;100.00;99277.88;5010669;28;20076;-77
2021/05/14 02:23:10;;;;;;;3.38;3.08;;;;;;;6.66;100.00;99280.66;5010855;28;20056;-76
2021/05/14 02:26:14;;;;;;;12.52;5.30;;;;;;;6.64;100.00;99285.88;5010977;28;20053;-76
2021/05/14 02:29:17;;;;;;;11.57;3.55;;;;;;;6.64;100.00;99283.13;5009942;28;20061;-77
2021/05/14 02:32:22;;;;;;;12.00;4.15;;;;;;;6.64;100.00;99291.41;5010100;28;20064;-77
2021/05/14 02:35:26;;;;;;;6.50;3.97;;;;;;;6.64;100.00;99285.88;5010456;28;20519;-76
2021/05/14 02:38:29;;;;;;;10.13;3.58;;;;;;;6.66;100.00;99269.59;5021206;28;20050;-76
2021/05/14 02:41:34;;;;;;;6.40;3.83;;;;;;;6.66;100.00;99277.88;5011069;28;20057;-76
2021/05/14 02:44:37;;;;;;;8.23;4.15;;;;;;;6.65;100.00;99277.13;5014704;28;20411;-77
2021/05/14 02:47:42;;;;;;;7.78;3.20;;;;;;;6.65;100.00;99276.34;5014579;28;20056;-76
2021/05/14 02:50:45;;;;;;;6.43;3.60;;;;;;;6.64;100.00;99274.81;5014415;28;20072;-77
2021/05/14 02:53:48;;;;;;;10.93;4.65;;;;;;;6.57;100.00;99275.91;5014485;28;20416;-76
2021/05/14 02:56:52;;;;;;;7.47;3.35;;;;;;;6.49;100.00;99269.16;5014379;28;20061;-76
2021/05/14 02:59:55;;;;;;;10.07;3.45;;;;;;;6.39;100.00;99269.63;5014324;28;20060;-76
2021/05/14 03:02:58;;;;;;;14.52;5.25;;;;;;;6.24;100.00;99263.91;5014268;28;20143;-77
2021/05/14 03:06:02;;;;;;;14.70;4.20;;;;;;;6.12;100.00;99262.06;5014318;28;20412;-76
2021/05/14 03:09:06;;;;;;;11.45;4.55;;;;;;;6.00;100.00;99254.69;5014191;28;20061;-77
2021/05/14 03:12:09;;;;;;;8.25;4.93;;;;;;;5.90;100.00;99261.44;5014140;28;20065;-76
2021/05/14 03:15:13;;;;;;;5.40;3.72;;;;;;;5.72;100.00;99267.66;5014218;28;20052;-76
2021/05/14 03:18:16;;;;;;;24.70;5.07;;;;;;;5.53;100.00;99265.28;5013726;28;20608;-76
2021/05/14 03:21:19;;;;;;;15.48;5.50;;;;;;;5.43;100.00;99266.50;5013259;28;20073;-76
2021/05/14 03:24:23;;;;;;;8.40;4.20;;;;;;;5.39;100.00;99255.59;5014062;28;20077;-76
2021/05/14 03:27:27;;;;;;;10.63;4.03;;;;;;;5.32;100.00;99256.66;5024599;28;20045;-76
2021/05/14 03:30:30;;;;;;;5.18;3.28;;;;;;;5.21;100.00;99256.31;5013985;28;20057;-76
2021/05/14 03:33:34;;;;;;;14.82;4.43;;;;;;;5.07;100.00;99256.84;5013167;28;20049;-80
2021/05/14 03:36:37;;;;;;;4.38;3.83;;;;;;;5.00;100.00;99256.34;5013776;28;20069;-81
2021/05/14 03:39:47;;;;;;;3.40;3.10;;;;;;;4.90;100.00;99257.50;5013794;28;20515;-80
2021/05/14 03:42:50;;;;;;;18.85;4.72;;;;;;;4.82;100.00;99261.75;5013284;28;20065;-80
2021/05/14 03:45:54;;;;;;;6.32;3.38;;;;;;;4.81;100.00;99260.97;5013443;28;20526;-80
2021/05/14 03:48:58;;;;;;;7.45;4.88;;;;;;;4.84;100.00;99253.81;5013440;28;20148;-80
2021/05/14 03:52:07;;;;;;;6.45;3.60;;;;;;;4.87;100.00;99247.41;5012685;28;20057;-80
2021/05/14 03:55:10;;;;;;;13.88;2.05;;;;;;;4.87;100.00;99247.41;5013462;28;20107;-80
2021/05/14 03:58:14;;;;;;;3.38;2.45;;;;;;;4.85;100.00;99249.84;5013192;28;20064;-80
2021/05/14 04:01:18;;;;;;;5.90;2.55;;;;;;;4.80;100.00;99255.94;5011779;28;20061;-80
2021/05/14 04:04:23;;;;;;;3.67;2.88;;;;;;;4.69;100.00;99269.34;5013390;28;20061;-80
2021/05/14 04:07:26;;;;;;;4.13;2.67;;;;;;;4.59;100.00;99272.03;5013228;28;20056;-80
2021/05/14 04:17:00;;;;;;;2.47;2.28;;;;;;;4.50;100.00;99268.47;5012907;28;20060;-80
2021/05/14 04:20:05;;;;;;;2.03;1.92;;;;;;;4.55;100.00;99276.13;5012861;28;20057;-80
2021/05/14 04:23:08;;;;;;;11.18;4.20;;;;;;;4.63;100.00;99280.94;5012777;28;20056;-80
2021/05/14 04:26:12;;;;;;;4.32;2.72;;;;;;;4.75;100.00;99278.56;5012843;28;20049;-79
2021/05/14 04:29:16;;;;;;;7.47;3.97;;;;;;;4.92;100.00;99288.16;5012680;28;20057;-79
2021/05/14 04:32:20;;;;;;;8.48;2.60;;;;;;;5.07;100.00;99289.94;5021045;28;20053;-78
2021/05/14 04:35:23;;;;;;;4.97;3.28;;;;;;;5.21;100.00;99291.41;5013982;28;20061;-78
2021/05/14 04:38:27;;;;;;;5.38;3.00;;;;;;;5.37;100.00;99291.94;5012957;28;20060;-78
2021/05/14 04:41:32;;;;;;;11.57;3.40;;;;;;;5.52;100.00;99297.69;5013871;28;20061;-78
2021/05/14 04:44:35;;;;;;;5.40;2.10;;;;;;;5.67;100.00;99298.66;5013718;28;20420;-77
2021/05/14 04:47:39;;;;;;;11.00;3.17;;;;;;;5.77;100.00;99300.22;5014131;28;20057;-78
2021/05/14 04:50:42;;;;;;;8.13;3.22;;;;;;;5.86;100.00;99294.75;5014337;28;20049;-78
2021/05/14 04:53:47;;;;;;;11.38;3.63;;;;;;;5.94;100.00;99301.50;5015781;28;20396;-77
2021/05/14 04:56:51;;;;;;;2.63;1.95;;;;;;;6.04;100.00;99305.81;5015326;28;20049;-78
2021/05/14 04:59:55;;;;;;;12.93;3.95;;;;;;;6.15;100.00;99310.16;5016337;28;20061;-77
2021/05/14 05:03:00;;;;;;;12.05;3.47;;;;;;;6.24;100.00;99312.94;5025351;28;20080;-78
2021/05/14 05:06:05;;;;;;;14.48;4.55;;;;;;;6.25;100.00;99314.47;5013043;28;20053;-79
2021/05/14 05:09:08;;;;;;;9.27;2.58;;;;;;;6.30;100.00;99313.84;5012671;28;20611;-80
2021/05/14 05:12:12;;;;;;;6.40;3.15;;;;;;;6.32;100.00;99320.47;5011705;28;20056;-79
2021/05/14 05:15:17;;;;;;;8.68;3.30;;;;;;;6.34;100.00;99314.47;5011710;28;20061;-79
2021/05/14 05:18:20;;;;;;;6.78;3.28;;;;;;;6.36;100.00;99321.09;5010597;28;20065;-79
2021/05/14 05:21:24;;;;;;;7.57;3.97;;;;;;;6.38;100.00;99323.38;5011513;28;20061;-79
2021/05/14 05:24:28;;;;;;;16.00;5.40;;;;;;;6.40;100.00;99329.22;5011462;28;20057;-78
2021/05/14 05:27:31;;;;;;;10.77;3.95;;;;;;;6.42;100.00;99324.75;5011183;28;20053;-79
2021/05/14 05:30:34;;;;;;;9.40;2.45;;;;;;;6.45;100.00;99328.63;5010868;28;20530;-78
2021/05/14 05:33:38;;;;;;;8.30;2.70;;;;;;;6.47;100.00;99331.69;5011016;28;20060;-77
2021/05/14 05:36:42;;;;;;;5.45;2.17;;;;;;;6.49;100.00;99318.16;5010390;28;20061;-77
2021/05/14 05:39:45;;;;;;;8.80;3.38;;;;;;;6.57;100.00;99322.16;5010509;28;20049;-77
2021/05/14 05:42:49;;;;;;;8.70;3.35;;;;;;;6.62;100.00;99327.84;5010224;28;20056;-77
2021/05/14 05:45:52;;;;;;;9.20;3.20;;;;;;;6.66;100.00;99336.75;5010367;28;20056;-77
2021/05/14 05:48:55;;;;;;;7.05;2.65;;;;;;;6.69;100.00;99335.81;5010528;28;20540;-76
2021/05/14 05:51:59;;;;;;;9.18;3.17;;;;;;;6.74;100.00;99342.75;5010605;28;20060;-77
2021/05/14 05:55:02;;;;;;;9.18;3.38;;;;;;;6.85;100.00;99345.81;5009322;28;20063;-76
2021/05/14 05:58:08;;;;;;;5.75;3.17;;;;;;;6.84;100.00;99347.81;5010356;28;20061;-77
2021/05/14 06:01:12;;;;;;;7.53;3.10;;;;;;;6.86;100.00;99339.06;5010705;28;20408;-76
2021/05/14 06:04:17;;;;;;;4.47;2.80;;;;;;;6.94;100.00;99348.56;5011024;28;20045;-79
2021/05/14 06:07:20;;;;;;;8.88;3.90;;;;;;;6.99;100.00;99345.19;5009352;28;20076;-79
2021/05/14 06:10:25;;;;;;;10.38;3.55;;;;;;;7.04;100.00;99352.13;5010323;28;20428;-76
2021/05/14 06:13:30;;;;;;;3.55;2.15;;;;;;;7.06;100.00;99344.84;5010025;28;20049;-76
2021/05/14 06:16:33;;;;;;;5.50;2.20;;;;;;;7.15;100.00;99347.63;5009981;28;20053;-77
2021/05/14 06:19:44;;;;;;;8.95;3.35;;;;;;;7.24;100.00;99352.38;5010257;28;20069;-77
2021/05/14 06:22:47;;;;;;;8.88;2.60;;;;;;;7.32;100.00;99354.34;5006891;28;20524;-77
2021/05/14 06:25:51;;;;;;;9.27;2.58;;;;;;;7.41;100.00;99348.78;4999785;28;20065;-77
2021/05/14 06:28:54;;;;;;;3.15;1.58;;;;;;;7.48;100.00;99348.47;5000629;28;20111;-76
2021/05/14 06:31:58;;;;;;;8.90;2.75;;;;;;;7.52;100.00;99349.06;5000532;28;20052;-78
2021/05/14 06:35:01;;;;;;;9.02;2.20;;;;;;;7.64;100.00;99345.31;5001732;28;20109;-79
2021/05/14 06:38:06;;;;;;;6.20;2.47;;;;;;;7.76;100.00;99354.66;5010883;28;20416;-79
2021/05/14 06:41:09;;;;;;;9.40;3.13;;;;;;;7.81;100.00;99340.16;5000320;28;20053;-79
2021/05/14 06:44:14;;;;;;;4.82;2.20;;;;;;;7.87;100.00;99338.28;5000007;28;20073;-79
2021/05/14 06:47:18;;;;;;;4.53;2.47;;;;;;;7.86;100.00;99349.84;5000327;28;20061;-79
2021/05/14 06:50:21;;;;;;;6.70;2.42;;;;;;;7.77;100.00;99341.56;5001223;28;20049;-79
2021/05/14 06:53:25;;;;;;;6.68;2.75;;;;;;;7.75;100.00;99355.13;4999110;28;20066;-80
2021/05/14 06:56:29;;;;;;;6.80;3.40;;;;;;;7.73;100.00;99354.84;4999263;28;20054;-78
2021/05/14 06:59:33;;;;;;;8.95;3.60;;;;;;;7.73;100.00;99354.84;4999828;28;20429;-77
2021/05/14 07:02:36;;;;;;;5.65;3.42;;;;;;;7.73;100.00;99360.38;5000246;28;20065;-77
2021/05/14 07:05:40;;;;;;;6.85;2.42;;;;;;;7.75;100.00;99360.69;5003361;28;20401;-76
2021/05/14 07:08:45;;;;;;;4.05;2.38;;;;;;;7.80;100.00;99369.13;4989892;28;20065;-79
2021/05/14 07:11:49;;;;;;;4.53;2.60;;;;;;;7.83;100.00;99372.97;4989862;28;20065;-79
2021/05/14 07:14:52;;;;;;;1.40;1.33;;;;;;;7.88;100.00;99370.34;4989914;28;20416;-79
2021/05/14 07:17:57;;;;;;;8.25;1.90;;;;;;;7.96;100.00;99365.97;4990305;28;20070;-78
2021/05/14 07:21:01;;;;;;;3.83;1.52;;;;;;;8.08;100.00;99372.53;4990048;28;20066;-79
2021/05/14 07:24:06;;;;;;;4.03;1.65;;;;;;;8.20;100.00;99372.31;4989707;28;20073;-78
2021/05/14 07:27:09;;;;;;;3.35;1.85;;;;;;;8.26;100.00;99370.47;4990123;28;20061;-79
2021/05/14 07:30:14;;;;;;;1.40;1.30;;;;;;;8.28;100.00;99367.22;4993626;28;20065;-79
2021/05/14 07:33:18;;;;;;;0.85;0.85;;;;;;;8.31;100.00;99369.03;4992981;28;20057;-78
2021/05/14 07:36:24;;;;;;;1.30;1.23;;;;;;;8.32;100.00;99359.47;4992692;28;20058;-79
2021/05/14 07:39:28;;;;;;;17.40;1.70;;;;;;;8.35;100.00;99369.63;4993475;28;20416;-78
2021/05/14 07:42:31;;;;;;;2.92;1.52;;;;;;;8.40;100.00;99374.53;4993709;28;20077;-78
2021/05/14 07:45:35;;;;;;;3.10;1.60;;;;;;;8.46;100.00;99363.53;4993624;28;20053;-79
2021/05/14 07:48:38;;;;;;;7.10;1.52;;;;;;;8.49;100.00;99363.34;4992797;28;20054;-79
2021/05/14 07:51:42;;;;;;;2.95;1.02;;;;;;;8.51;100.00;99369.19;4993295;28;20073;-79
2021/05/14 07:54:46;;;;;;;5.00;1.17;;;;;;;8.51;100.00;99366.44;4992301;28;20053;-76
2021/05/14 07:57:50;;;;;;;5.15;1.45;;;;;;;8.52;100.00;99367.19;4991528;28;20053;-76
2021/05/14 08:00:53;;;;;;;3.90;1.40;;;;;;;8.50;100.00;99370.47;4992923;28;20053;-77
2021/05/14 08:03:56;;;;;;;1.70;0.93;;;;;;;8.53;100.00;99375.06;5003265;28;20397;-78
2021/05/14 08:07:00;;;;;;;1.20;0.85;;;;;;;8.53;100.00;99380.63;5012515;28;20065;-78
2021/05/14 08:10:03;;;;;;;2.10;1.40;;;;;;;8.55;100.00;99378.13;5012266;28;20069;-78
2021/05/14 08:13:08;;;;;;;1.67;1.50;;;;;;;8.55;100.00;99372.59;5012190;28;20061;-78
2021/05/14 08:16:11;;;;;;;3.20;1.25;;;;;;;8.52;100.00;99367.19;5011029;28;20407;-77
2021/05/14 08:19:14;;;;;;;3.30;1.30;;;;;;;8.46;100.00;99364.31;5011434;28;20057;-76
2021/05/14 08:22:18;;;;;;;1.23;0.85;;;;;;;8.43;100.00;99359.72;5010726;28;20611;-76
2021/05/14 08:25:22;;;;;;;2.55;1.15;;;;;;;8.41;100.00;99362.19;5011832;28;20424;-76
2021/05/14 08:28:25;;;;;;;5.88;1.08;;;;;;;8.36;100.00;99360.06;5010960;28;20061;-77
2021/05/14 08:31:29;;;;;;;1.20;1.08;;;;;;;8.35;100.00;99364.09;5012212;28;20420;-77
2021/05/14 08:34:32;;;;;;;3.22;1.33;;;;;;;8.37;100.00;99365.16;5011688;28;20049;-76
2021/05/14 08:37:38;;;;;;;4.63;1.80;;;;;;;8.39;100.00;99359.13;5013324;28;20057;-76
2021/05/14 08:40:42;;;;;;;2.60;1.67;;;;;;;8.39;100.00;99361.91;5011470;28;20065;-77
2021/05/14 08:43:47;;;;;;;5.43;1.55;;;;;;;8.41;100.00;99359.41;5021611;28;20061;-79
2021/05/14 08:46:50;;;;;;;3.15;0.77;;;;;;;8.46;100.00;99356.00;5011400;28;20058;-77
2021/05/14 08:49:54;;;;;;;5.75;1.35;;;;;;;8.46;100.00;99358.78;5011435;28;20056;-78
2021/05/14 08:52:58;;;;;;;4.05;1.23;;;;;;;8.43;100.00;99365.25;5011285;28;20065;-77
2021/05/14 08:56:01;;;;;;;6.63;0.90;;;;;;;8.45;100.00;99362.78;5010047;28;20057;-78
2021/05/14 08:59:05;;;;;;;0.95;0.20;;;;;;;8.51;100.00;99360.13;5009860;28;20072;-79
2021/05/14 09:02:08;;;;;;;2.50;1.20;;;;;;;8.51;100.00;99355.31;5011461;28;20121;-77
2021/05/14 09:05:27;;;;;;;2.15;1.23;;;;;;;8.51;100.00;99360.13;5011466;28;20048;-76
2021/05/14 09:08:31;;;;;;;2.95;1.35;;;;;;;8.51;100.00;99349.78;5010569;28;20057;-76
2021/05/14 09:11:43;;;;;;;2.85;0.75;;;;;;;8.56;100.00;99346.34;5011158;28;20052;-76
2021/05/14 09:14:47;;;;;;;4.28;1.83;;;;;;;8.58;100.00;99346.66;5011005;28;20049;-77
2021/05/14 09:18:07;;;;;;;2.95;1.20;;;;;;;8.61;100.00;99348.50;5010571;28;20412;-77
2021/05/14 09:21:10;;;;;;;5.13;2.13;;;;;;;8.60;100.00;99349.72;5011268;28;20056;-78
2021/05/14 09:24:26;;;;;;;2.50;1.23;;;;;;;8.60;100.00;99349.72;5010970;28;20061;-78
2021/05/14 09:27:34;;;;;;;4.00;1.85;;;;;;;8.61;100.00;99354.03;5008915;28;20045;-78
2021/05/14 09:30:38;;;;;;;2.30;1.63;;;;;;;8.59;100.00;99345.41;5010666;28;20057;-78
2021/05/14 09:33:45;;;;;;;3.75;1.08;;;;;;;8.60;100.00;99351.75;5010839;28;20420;-77
2021/05/14 09:36:48;;;;;;;2.45;0.57;;;;;;;8.56;100.00;99348.34;5021008;28;20053;-77
2021/05/14 09:40:11;;;;;;;8.55;1.90;;;;;;;8.58;100.00;99349.41;5009959;28;20053;-77
2021/05/14 09:43:15;;;;;;;3.85;1.17;;;;;;;8.57;100.00;99359.00;5010672;28;20048;-79
2021/05/14 09:46:28;;;;;;;3.33;1.17;;;;;;;8.61;100.00;99354.03;5009225;28;20061;-78
2021/05/14 09:49:34;;;;;;;6.28;1.23;;;;;;;8.61;100.00;99365.13;5010642;28;20052;-78
2021/05/14 09:52:38;;;;;;;3.70;1.38;;;;;;;8.60;100.00;99352.50;5010507;28;20070;-77
2021/05/14 09:55:48;;;;;;;4.93;2.17;;;;;;;8.61;100.00;99356.81;5010365;28;20057;-78
2021/05/14 09:58:54;;;;;;;3.30;1.35;;;;;;;8.62;100.00;99350.00;5010140;28;20057;-78
2021/05/14 10:01:58;;;;;;;6.10;2.72;;;;;;;8.66;100.00;99353.38;5020283;28;20571;-78
2021/05/14 10:05:12;;;;;;;7.15;3.13;;;;;;;8.74;100.00;99351.78;5010058;28;20056;-77
2021/05/14 10:08:21;;;;;;;6.25;2.10;;;;;;;8.74;100.00;99354.56;5010156;28;20057;-77
2021/05/14 10:11:27;;;;;;;10.43;2.97;;;;;;;8.71;100.00;99347.16;5009348;28;20407;-77
2021/05/14 10:14:32;;;;;;;7.60;3.13;;;;;;;8.77;100.00;99345.25;5009937;28;20057;-78
2021/05/14 10:17:41;;;;;;;11.07;3.85;;;;;;;8.85;100.00;99345.66;5009943;28;20061;-78
2021/05/14 10:20:47;;;;;;;9.50;3.05;;;;;;;8.96;100.00;99349.44;5010028;28;20061;-78
2021/05/14 10:23:50;;;;;;;3.17;1.92;;;;;;;9.12;100.00;99348.94;5009997;28;20068;-77
2021/05/14 10:27:12;;;;;;;4.82;2.35;;;;;;;9.28;100.00;99349.72;5009698;28;20057;-78
2021/05/14 10:30:16;;;;;;;6.88;3.17;;;;;;;9.39;100.00;99349.91;5009916;28;20542;-77
2021/05/14 10:33:45;;;;;;;5.55;1.50;;;;;;;9.57;100.00;99344.91;5009436;28;20053;-78
2021/05/14 10:36:49;;;;;;;4.28;1.75;;;;;;;9.88;100.00;99347.16;5010410;28;20068;-78
2021/05/14 10:39:53;;;;;;;8.15;2.17;;;;;;;10.16;100.00;99330.91;5009543;28;20065;-77
2021/05/14 10:43:07;;;;;;;4.57;2.50;;;;;;;10.62;100.00;99328.97;5009934;28;20060;-77
2021/05/14 10:46:27;;;;;;;5.53;1.27;;;;;;;11.04;100.00;99322.84;5009658;28;20053;-78
2021/05/14 10:49:40;;;;;;;5.93;2.88;;;;;;;11.18;100.00;99333.88;5009488;28;20057;-78
2021/05/14 10:53:26;;;;;;;7.32;2.67;;;;;;;11.31;100.00;99334.25;5020043;28;20535;-77
2021/05/14 10:56:30;;;;;;;6.72;2.00;;;;;;;11.27;100.00;99324.56;5008781;28;20053;-77
2021/05/14 10:59:35;;;;;;;4.90;1.75;;;;;;;11.43;100.00;99326.75;5009692;28;20057;-77
2021/05/14 11:02:41;;;;;;;5.38;1.50;;;;;;;11.71;100.00;99319.41;5010750;28;20117;-78
2021/05/14 11:06:07;;;;;;;5.88;2.45;;;;;;;11.95;100.00;99317.00;5013488;28;20057;-78
2021/05/14 11:09:14;;;;;;;4.47;2.13;;;;;;;12.18;100.00;99324.28;5013737;28;20073;-78
2021/05/14 11:12:25;;;;;;;3.47;1.63;;;;;;;12.42;100.00;99326.66;5012927;28;20057;-78
2021/05/14 11:15:31;;;;;;;4.45;1.65;;;;;;;12.63;100.00;99321.66;5013617;28;20050;-78
2021/05/14 11:18:49;;;;;;;4.38;1.95;;;;;;;12.84;100.00;99317.44;5013486;28;20057;-80
2021/05/14 11:22:04;;;;;;;4.18;1.70;;;;;;;12.88;100.00;99318.72;5013210;28;20057;-77
2021/05/14 11:25:14;;;;;;;6.05;1.98;;;;;;;12.97;100.00;99314.94;5012961;28;20049;-78
2021/05/14 11:28:17;;;;;;;3.80;2.35;;;;;;;13.05;100.00;99315.97;5012124;28;20439;-78
2021/05/14 11:31:24;;;;;;;6.28;1.90;;;;;;;13.10;100.00;99308.88;5012889;28;20060;-79
2021/05/14 11:34:27;;;;;;;4.53;1.52;;;;;;;13.34;100.00;99297.97;5012593;28;20049;-78
2021/05/14 11:37:31;;;;;;;3.15;1.42;;;;;;;13.50;100.00;99300.75;5012524;28;20053;-77
2021/05/14 11:40:36;;;;;;;3.47;1.30;;;;;;;13.73;100.00;99304.28;5012721;28;20053;-76
2021/05/14 11:43:39;;;;;;;1.75;1.13;;;;;;;13.88;100.00;99290.06;5012941;28;20061;-78
2021/05/14 11:46:44;;;;;;;7.57;1.98;;;;;;;13.99;100.00;99293.56;5012530;28;20057;-78
2021/05/14 11:49:47;;;;;;;2.75;1.08;;;;;;;14.20;100.00;99294.03;5012624;28;20057;-78
2021/05/14 11:52:50;;;;;;;4.53;2.25;;;;;;;14.14;100.00;99290.50;5012348;28;20069;-77
2021/05/14 11:55:55;;;;;;;3.05;1.85;;;;;;;13.93;100.00;99294.84;5012255;28;20053;-78
2021/05/14 11:58:59;;;;;;;4.57;1.98;;;;;;;13.70;100.00;99291.34;5012320;28;20060;-78
2021/05/14 12:02:02;;;;;;;3.35;1.77;;;;;;;13.72;100.00;99293.63;5011912;28;20057;-78
2021/05/14 12:05:08;;;;;;;3.33;1.50;;;;;;;13.67;100.00;99293.13;5012115;28;20048;-78
2021/05/14 12:08:23;;;;;;;3.88;1.73;;;;;;;13.66;100.00;99285.97;5011682;28;20073;-78
2021/05/14 12:11:27;;;;;;;2.17;1.33;;;;;;;13.46;100.00;99289.06;5011582;28;20061;-78
2021/05/14 12:14:31;;;;;;;5.35;1.27;;;;;;;13.31;100.00;99282.19;5011927;28;20053;-78
2021/05/14 12:17:38;;;;;;;3.03;1.25;;;;;;;13.14;100.00;99285.00;5012219;28;20056;-77
2021/05/14 12:20:42;;;;;;;3.95;1.33;;;;;;;13.15;100.00;99278.13;5012143;28;20185;-77
2021/05/14 12:23:46;;;;;;;4.95;1.63;;;;;;;13.09;100.00;99276.59;5012072;28;20073;-77
2021/05/14 12:27:03;;;;;;;6.15;2.05;;;;;;;13.08;100.00;99275.06;5011497;28;20530;-78
2021/05/14 12:30:09;;;;;;;4.95;2.22;;;;;;;13.06;100.00;99275.56;5011969;28;20061;-78
2021/05/14 12:33:13;;;;;;;9.70;2.15;;;;;;;13.10;100.00;99278.91;5012049;28;20061;-78
2021/05/14 12:36:25;;;;;;;4.22;1.88;;;;;;;13.21;100.00;99273.28;5014505;28;20104;-77
2021/05/14 12:39:29;;;;;;;2.88;1.13;;;;;;;13.35;100.00;99272.28;5014773;28;20060;-75
2021/05/14 12:42:34;;;;;;;4.75;1.77;;;;;;;13.46;100.00;99272.28;5011442;28;20069;-78
2021/05/14 12:45:40;;;;;;;3.88;1.98;;;;;;;13.47;100.00;99268.19;5011698;28;20053;-76
2021/05/14 12:48:47;;;;;;;4.30;2.17;;;;;;;13.44;100.00;99263.66;5011179;28;20057;-77
2021/05/14 12:52:01;;;;;;;3.65;1.25;;;;;;;13.39;100.00;99270.00;5009090;28;20061;-76
2021/05/14 12:55:07;;;;;;;3.25;1.40;;;;;;;13.28;100.00;99261.59;5011437;28;20427;-76
2021/05/14 12:58:11;;;;;;;1.95;1.63;;;;;;;13.27;100.00;99274.06;5011487;28;20535;-77
2021/05/14 13:01:23;;;;;;;2.85;1.48;;;;;;;13.29;100.00;99268.72;5011307;28;20415;-76
2021/05/14 13:04:31;;;;;;;4.47;1.98;;;;;;;13.38;100.00;99270.50;5010827;28;20416;-77
2021/05/14 13:07:35;;;;;;;2.88;1.25;;;;;;;13.47;100.00;99267.47;5011744;28;20049;-80
2021/05/14 13:10:46;;;;;;;2.65;1.15;;;;;;;13.50;100.00;99260.84;5010879;28;20065;-78
2021/05/14 13:13:50;;;;;;;3.80;1.33;;;;;;;13.51;100.00;99256.78;5011125;28;20061;-76
2021/05/14 13:16:53;;;;;;;2.28;1.00;;;;;;;13.50;100.00;99256.00;5011166;28;20064;-78
2021/05/14 13:19:57;;;;;;;2.85;1.08;;;;;;;13.76;100.00;99246.53;5011678;28;20077;-78
2021/05/14 13:23:00;;;;;;;2.42;1.10;;;;;;;14.01;100.00;99237.81;5001951;28;20057;-77
2021/05/14 13:26:04;;;;;;;5.68;1.23;;;;;;;14.20;100.00;99235.22;5020798;28;20508;-78
2021/05/14 13:29:08;;;;;;;2.28;1.30;;;;;;;14.33;100.00;99241.81;5021481;28;20057;-76
2021/05/14 13:32:12;;;;;;;3.17;1.58;;;;;;;14.41;100.00;99236.44;5010664;28;20068;-78
2021/05/14 13:35:15;;;;;;;2.10;1.17;;;;;;;14.40;100.00;99240.53;5016402;28;20096;-77
2021/05/14 13:38:18;;;;;;;4.15;1.77;;;;;;;14.48;100.00;99240.72;5009359;28;20415;-78
2021/05/14 13:41:22;;;;;;;5.80;2.20;;;;;;;14.36;100.00;99240.00;5021075;28;20061;-77
2021/05/14 13:44:25;;;;;;;3.03;1.30;;;;;;;14.46;100.00;99229.28;4999016;28;20564;-76
2021/05/14 13:47:29;;;;;;;3.65;1.25;;;;;;;14.53;100.00;99229.47;4991024;28;20057;-76
2021/05/14 13:50:32;;;;;;;3.10;1.67;;;;;;;14.56;100.00;99225.66;4993713;28;20061;-77
2021/05/14 13:53:36;;;;;;;4.45;1.60;;;;;;;14.53;100.00;99221.06;4990929;28;20070;-77
2021/05/14 13:56:40;;;;;;;2.97;1.67;;;;;;;14.48;100.00;99219.06;4989757;28;20073;-78
2021/05/14 13:59:43;;;;;;;6.30;1.90;;;;;;;14.52;100.00;99216.00;4990612;28;20053;-77
2021/05/14 14:02:47;;;;;;;2.03;1.40;;;;;;;14.70;100.00;99218.97;4991036;28;20527;-77
2021/05/14 14:05:50;;;;;;;2.60;1.15;;;;;;;15.00;100.00;99205.75;5004880;28;20060;-78
2021/05/14 14:08:54;;;;;;;3.13;1.23;;;;;;;15.11;100.00;99207.69;5002449;28;20057;-78
2021/05/14 14:11:57;;;;;;;4.97;1.83;;;;;;;15.29;100.00;99209.81;4994506;28;20061;-78
2021/05/14 14:15:00;;;;;;;2.10;1.33;;;;;;;15.61;100.00;99198.84;4990747;28;20057;-77
2021/05/14 14:18:04;;;;;;;7.90;1.40;;;;;;;15.95;100.00;99211.22;4990705;28;20057;-77
2021/05/14 14:21:07;;;;;;;10.35;1.98;;;;;;;15.64;100.00;99203.38;4990418;28;20069;-77
2021/05/14 14:24:12;;;;;;;7.38;2.05;;;;;;;15.12;100.00;99197.97;4990681;28;20377;-77
2021/05/14 14:27:19;;;;;;;3.85;1.67;;;;;;;14.63;100.00;99197.09;4991017;28;20057;-76
2021/05/14 14:30:23;;;;;;;7.90;2.13;;;;;;;14.32;100.00;99183.50;4991078;28;20057;-78
2021/05/14 14:33:26;;;;;;;5.78;2.00;;;;;;;14.14;100.00;99187.63;4991768;28;20058;-77